Freetown, Kentucky
Current Conditions -  °F | °C
As of 12:55 PM on Friday 24 Oct 2014 (Local Time) from KGLW Reporting Station
Clear Clear  
Wind Chill: 66°   Ceiling: Unl
Heat Index: 66°   Visibility: 10mi
Dew Point: 39°   Wind: 0mph
Humidity: 37%   Direction: NA
Pressure: 30.1"   Gusts: NA
Location:  36.6549°N, 85.8315°W
Report Text: KGLW 241755Z AUTO 00000KT 10SM CLR 19/04 A3010 RMK AO2 T01870038 10187 20044
Loading
Personal Weather Stations






























Interactive Weather Map
Tropical Storm Tracking
New forecast layout! Learn more

10-Day Weather Forecast

Advertisements
Track Severe Weather on mobile